sensor_id;sensor_type;location;lat;lon;timestamp;pressure;altitude;pressure_sealevel;temperature;humidity
49949;BME280;35840;45.982;8.890;2023-05-20T00:02:10;98557.94;;;13.45;95.95
49949;BME280;35840;45.982;8.890;2023-05-20T00:04:37;98555.56;;;13.42;96.47
49949;BME280;35840;45.982;8.890;2023-05-20T00:07:04;98550.06;;;13.34;96.16
49949;BME280;35840;45.982;8.890;2023-05-20T00:09:30;98555.47;;;13.43;96.16
49949;BME280;35840;45.982;8.890;2023-05-20T00:11:57;98550.91;;;13.47;95.39
49949;BME280;35840;45.982;8.890;2023-05-20T00:14:24;98550.91;;;13.47;94.86
49949;BME280;35840;45.982;8.890;2023-05-20T00:16:51;98536.25;;;13.35;95.03
49949;BME280;35840;45.982;8.890;2023-05-20T00:19:18;98544.91;;;13.34;95.03
49949;BME280;35840;45.982;8.890;2023-05-20T00:21:44;98555.34;;;13.45;95.45
49949;BME280;35840;45.982;8.890;2023-05-20T00:24:11;98551.63;;;13.49;94.75
49949;BME280;35840;45.982;8.890;2023-05-20T00:26:38;98543.28;;;13.46;93.97
49949;BME280;35840;45.982;8.890;2023-05-20T00:29:04;98547.22;;;13.38;95.07
49949;BME280;35840;45.982;8.890;2023-05-20T00:31:31;98547.13;;;13.40;94.76
49949;BME280;35840;45.982;8.890;2023-05-20T00:33:58;98541.00;;;13.41;94.54
49949;BME280;35840;45.982;8.890;2023-05-20T00:36:25;98548.03;;;13.39;95.59
49949;BME280;35840;45.982;8.890;2023-05-20T00:38:52;98545.66;;;13.36;95.29
49949;BME280;35840;45.982;8.890;2023-05-20T00:41:19;98540.50;;;13.36;94.75
49949;BME280;35840;45.982;8.890;2023-05-20T00:43:47;98536.25;;;13.35;95.30
49949;BME280;35840;45.982;8.890;2023-05-20T00:46:13;98537.47;;;13.29;95.62
49949;BME280;35840;45.982;8.890;2023-05-20T00:48:42;98536.97;;;13.24;95.38
49949;BME280;35840;45.982;8.890;2023-05-20T00:51:10;98538.13;;;13.20;94.98
49949;BME280;35840;45.982;8.890;2023-05-20T00:53:38;98534.00;;;13.17;95.59
49949;BME280;35840;45.982;8.890;2023-05-20T00:56:06;98534.38;;;13.24;94.04
49949;BME280;35840;45.982;8.890;2023-05-20T00:58:34;98533.34;;;13.26;94.36
49949;BME280;35840;45.982;8.890;2023-05-20T01:01:04;98526.34;;;13.29;94.04
49949;BME280;35840;45.982;8.890;2023-05-20T01:03:31;98522.91;;;13.28;94.18
49949;BME280;35840;45.982;8.890;2023-05-20T01:05:59;98523.25;;;13.23;94.96
49949;BME280;35840;45.982;8.890;2023-05-20T01:08:26;98517.66;;;13.17;95.28
49949;BME280;35840;45.982;8.890;2023-05-20T01:13:30;98525.03;;;13.10;95.43
49949;BME280;35840;45.982;8.890;2023-05-20T01:16:01;98525.25;;;13.07;95.09
49949;BME280;35840;45.982;8.890;2023-05-20T01:18:30;98533.56;;;13.11;94.60
49949;BME280;35840;45.982;8.890;2023-05-20T01:20:58;98513.97;;;13.08;94.88
49949;BME280;35840;45.982;8.890;2023-05-20T01:23:38;98513.03;;;13.09;94.39
49949;BME280;35840;45.982;8.890;2023-05-20T01:26:08;98517.38;;;13.21;93.74
49949;BME280;35840;45.982;8.890;2023-05-20T01:28:36;98512.09;;;13.23;93.01
49949;BME280;35840;45.982;8.890;2023-05-20T01:31:31;98513.75;;;13.11;93.93
49949;BME280;35840;45.982;8.890;2023-05-20T01:33:57;98515.81;;;13.19;94.56
49949;BME280;35840;45.982;8.890;2023-05-20T01:36:25;98510.75;;;13.17;94.58
49949;BME280;35840;45.982;8.890;2023-05-20T01:38:53;98514.16;;;13.18;91.84
49949;BME280;35840;45.982;8.890;2023-05-20T01:41:22;98515.19;;;13.15;92.99
49949;BME280;35840;45.982;8.890;2023-05-20T01:43:49;98510.03;;;13.15;93.31
49949;BME280;35840;45.982;8.890;2023-05-20T01:46:16;98510.88;;;13.03;94.42
49949;BME280;35840;45.982;8.890;2023-05-20T01:48:43;98507.78;;;12.98;95.07
49949;BME280;35840;45.982;8.890;2023-05-20T01:51:10;98506.84;;;12.99;94.65
49949;BME280;35840;45.982;8.890;2023-05-20T01:53:37;98499.72;;;12.89;95.03
49949;BME280;35840;45.982;8.890;2023-05-20T01:56:04;98505.63;;;12.91;95.05
49949;BME280;35840;45.982;8.890;2023-05-20T01:58:31;98508.38;;;12.88;93.63
49949;BME280;35840;45.982;8.890;2023-05-20T02:00:58;98502.41;;;12.88;94.04
49949;BME280;35840;45.982;8.890;2023-05-20T02:03:26;98497.25;;;12.88;93.74
49949;BME280;35840;45.982;8.890;2023-05-20T02:05:53;98495.91;;;12.82;95.12
49949;BME280;35840;45.982;8.890;2023-05-20T02:08:21;98488.19;;;12.82;95.39
49949;BME280;35840;45.982;8.890;2023-05-20T02:10:48;98486.13;;;12.87;95.30
49949;BME280;35840;45.982;8.890;2023-05-20T02:13:15;98476.72;;;12.86;95.48
49949;BME280;35840;45.982;8.890;2023-05-20T02:15:42;98469.09;;;12.85;95.75
49949;BME280;35840;45.982;8.890;2023-05-20T02:18:09;98466.41;;;12.86;95.78
49949;BME280;35840;45.982;8.890;2023-05-20T02:20:37;98464.34;;;12.91;94.73
49949;BME280;35840;45.982;8.890;2023-05-20T02:23:05;98448.34;;;12.86;95.33
49949;BME280;35840;45.982;8.890;2023-05-20T02:25:32;98461.94;;;12.88;95.61
49949;BME280;35840;45.982;8.890;2023-05-20T02:27:59;98456.72;;;12.90;95.37
49949;BME280;35840;45.982;8.890;2023-05-20T02:30:26;98454.13;;;12.90;95.84
49949;BME280;35840;45.982;8.890;2023-05-20T02:32:53;98444.41;;;12.94;96.14
49949;BME280;35840;45.982;8.890;2023-05-20T02:35:20;98445.22;;;12.94;95.52
49949;BME280;35840;45.982;8.890;2023-05-20T02:37:46;98445.13;;;13.08;94.55
49949;BME280;35840;45.982;8.890;2023-05-20T02:40:14;98436.63;;;13.06;93.52
49949;BME280;35840;45.982;8.890;2023-05-20T02:42:41;98442.72;;;13.05;92.89
49949;BME280;35840;45.982;8.890;2023-05-20T02:45:08;98439.66;;;13.00;93.75
49949;BME280;35840;45.982;8.890;2023-05-20T02:47:35;98427.78;;;12.98;94.37
49949;BME280;35840;45.982;8.890;2023-05-20T02:50:04;98441.81;;;12.94;94.21
49949;BME280;35840;45.982;8.890;2023-05-20T02:52:30;98445.75;;;12.99;94.52
49949;BME280;35840;45.982;8.890;2023-05-20T02:54:57;98445.53;;;13.02;94.29
49949;BME280;35840;45.982;8.890;2023-05-20T02:57:24;98434.97;;;13.05;93.92
49949;BME280;35840;45.982;8.890;2023-05-20T02:59:54;98435.94;;;13.04;93.43
49949;BME280;35840;45.982;8.890;2023-05-20T03:02:21;98434.72;;;12.97;93.99
49949;BME280;35840;45.982;8.890;2023-05-20T03:04:49;98440.91;;;12.95;94.58
49949;BME280;35840;45.982;8.890;2023-05-20T03:07:16;98444.41;;;12.94;94.14
49949;BME280;35840;45.982;8.890;2023-05-20T03:09:45;98434.09;;;12.94;93.89
49949;BME280;35840;45.982;8.890;2023-05-20T03:12:12;98431.81;;;12.89;94.00
49949;BME280;35840;45.982;8.890;2023-05-20T03:14:39;98429.56;;;12.84;92.42
49949;BME280;35840;45.982;8.890;2023-05-20T03:17:07;98430.19;;;12.75;93.12
49949;BME280;35840;45.982;8.890;2023-05-20T03:19:33;98427.19;;;12.68;93.48
49949;BME280;35840;45.982;8.890;2023-05-20T03:22:03;98415.75;;;12.72;92.94
49949;BME280;35840;45.982;8.890;2023-05-20T03:24:31;98422.88;;;12.69;93.16
49949;BME280;35840;45.982;8.890;2023-05-20T03:26:58;98420.00;;;12.61;92.79
49949;BME280;35840;45.982;8.890;2023-05-20T03:29:24;98420.91;;;12.60;92.77
49949;BME280;35840;45.982;8.890;2023-05-20T03:31:52;98411.72;;;12.55;93.53
49949;BME280;35840;45.982;8.890;2023-05-20T03:34:19;98412.47;;;12.57;93.73
49949;BME280;35840;45.982;8.890;2023-05-20T03:36:47;98405.97;;;12.52;94.40
49949;BME280;35840;45.982;8.890;2023-05-20T03:39:14;98408.72;;;12.49;95.66
49949;BME280;35840;45.982;8.890;2023-05-20T03:41:41;98415.75;;;12.47;95.99
49949;BME280;35840;45.982;8.890;2023-05-20T03:44:09;98409.34;;;12.52;94.98
49949;BME280;35840;45.982;8.890;2023-05-20T03:46:37;98407.59;;;12.53;93.96
49949;BME280;35840;45.982;8.890;2023-05-20T03:49:04;98412.47;;;12.57;93.52
49949;BME280;35840;45.982;8.890;2023-05-20T03:51:31;98405.97;;;12.65;93.62
49949;BME280;35840;45.982;8.890;2023-05-20T03:54:04;98416.59;;;12.73;92.43
49949;BME280;35840;45.982;8.890;2023-05-20T03:56:31;98409.66;;;12.73;93.56
49949;BME280;35840;45.982;8.890;2023-05-20T03:58:58;98409.13;;;12.68;93.58
49949;BME280;35840;45.982;8.890;2023-05-20T04:01:25;98420.28;;;12.69;94.38
49949;BME280;35840;45.982;8.890;2023-05-20T04:03:51;98408.84;;;12.73;92.84
49949;BME280;35840;45.982;8.890;2023-05-20T04:06:18;98413.25;;;12.71;93.46
49949;BME280;35840;45.982;8.890;2023-05-20T04:08:45;98412.84;;;12.77;93.09
49949;BME280;35840;45.982;8.890;2023-05-20T04:11:12;98418.00;;;12.77;92.51
49949;BME280;35840;45.982;8.890;2023-05-20T04:13:39;98399.34;;;12.73;93.58
49949;BME280;35840;45.982;8.890;2023-05-20T04:16:06;98404.16;;;12.78;92.93
49949;BME280;35840;45.982;8.890;2023-05-20T04:18:33;98401.50;;;12.67;91.93
49949;BME280;35840;45.982;8.890;2023-05-20T04:21:04;98410.38;;;12.63;93.07
49949;BME280;35840;45.982;8.890;2023-05-20T04:23:31;98406.66;;;12.67;94.04
49949;BME280;35840;45.982;8.890;2023-05-20T04:25:59;98412.44;;;12.70;94.39
49949;BME280;35840;45.982;8.890;2023-05-20T04:28:30;98406.03;;;12.76;93.30
49949;BME280;35840;45.982;8.890;2023-05-20T04:30:58;98410.78;;;12.82;93.13
49949;BME280;35840;45.982;8.890;2023-05-20T04:33:26;98402.72;;;12.87;93.31
49949;BME280;35840;45.982;8.890;2023-05-20T04:35:53;98405.50;;;12.84;92.82
49949;BME280;35840;45.982;8.890;2023-05-20T04:38:24;98407.88;;;12.87;91.38
49949;BME280;35840;45.982;8.890;2023-05-20T04:40:55;98391.16;;;12.80;93.38
49949;BME280;35840;45.982;8.890;2023-05-20T04:43:24;98406.66;;;12.80;93.17
49949;BME280;35840;45.982;8.890;2023-05-20T04:46:00;98403.16;;;12.81;93.33
49949;BME280;35840;45.982;8.890;2023-05-20T04:48:32;98402.44;;;12.79;95.47
49949;BME280;35840;45.982;8.890;2023-05-20T04:50:59;98409.34;;;12.78;94.04
49949;BME280;35840;45.982;8.890;2023-05-20T04:53:26;98405.53;;;12.71;93.30
49949;BME280;35840;45.982;8.890;2023-05-20T04:55:55;98406.34;;;12.71;93.49
49949;BME280;35840;45.982;8.890;2023-05-20T04:58:23;98405.03;;;12.79;93.88
49949;BME280;35840;45.982;8.890;2023-05-20T05:00:51;98400.44;;;12.82;94.20
49949;BME280;35840;45.982;8.890;2023-05-20T05:03:18;98392.63;;;12.71;94.49
49949;BME280;35840;45.982;8.890;2023-05-20T05:05:45;98391.81;;;12.70;95.57
49949;BME280;35840;45.982;8.890;2023-05-20T05:08:13;98399.22;;;12.75;96.89
49949;BME280;35840;45.982;8.890;2023-05-20T05:10:46;98389.44;;;12.67;96.18
49949;BME280;35840;45.982;8.890;2023-05-20T05:13:12;98400.88;;;12.76;96.31
49949;BME280;35840;45.982;8.890;2023-05-20T05:15:39;98388.91;;;12.75;97.14
49949;BME280;35840;45.982;8.890;2023-05-20T05:18:06;98371.00;;;12.61;96.72
49949;BME280;35840;45.982;8.890;2023-05-20T05:20:34;98391.81;;;12.70;97.46
49949;BME280;35840;45.982;8.890;2023-05-20T05:23:01;98391.72;;;12.72;97.95
49949;BME280;35840;45.982;8.890;2023-05-20T05:25:28;98384.88;;;12.71;97.61
49949;BME280;35840;45.982;8.890;2023-05-20T05:27:57;98387.38;;;12.72;97.72
49949;BME280;35840;45.982;8.890;2023-05-20T05:30:24;98386.22;;;12.77;98.40
49949;BME280;35840;45.982;8.890;2023-05-20T05:32:51;98385.38;;;12.89;97.64
49949;BME280;35840;45.982;8.890;2023-05-20T05:35:18;98379.47;;;12.87;97.39
49949;BME280;35840;45.982;8.890;2023-05-20T05:37:45;98381.66;;;12.93;96.86
49949;BME280;35840;45.982;8.890;2023-05-20T05:40:12;98374.03;;;12.91;98.04
49949;BME280;35840;45.982;8.890;2023-05-20T05:42:39;98366.19;;;12.93;95.94
49949;BME280;35840;45.982;8.890;2023-05-20T05:45:07;98371.00;;;12.98;95.91
49949;BME280;35840;45.982;8.890;2023-05-20T05:47:35;98359.13;;;12.95;94.52
49949;BME280;35840;45.982;8.890;2023-05-20T05:50:02;98365.34;;;12.92;95.87
49949;BME280;35840;45.982;8.890;2023-05-20T05:52:31;98361.53;;;12.85;95.93
49949;BME280;35840;45.982;8.890;2023-05-20T05:54:59;98361.75;;;12.82;96.03
49949;BME280;35840;45.982;8.890;2023-05-20T05:57:27;98367.72;;;12.83;96.65
49949;BME280;35840;45.982;8.890;2023-05-20T05:59:53;98359.19;;;12.82;97.61
49949;BME280;35840;45.982;8.890;2023-05-20T06:02:21;98357.31;;;12.84;97.11
49949;BME280;35840;45.982;8.890;2023-05-20T06:04:48;98363.91;;;12.88;97.16
49949;BME280;35840;45.982;8.890;2023-05-20T06:07:15;98360.50;;;12.88;98.15
49949;BME280;35840;45.982;8.890;2023-05-20T06:09:42;98356.16;;;12.88;97.78
49949;BME280;35840;45.982;8.890;2023-05-20T06:12:09;98355.97;;;12.91;96.98
49949;BME280;35840;45.982;8.890;2023-05-20T06:14:39;98356.78;;;12.92;96.67
49949;BME280;35840;45.982;8.890;2023-05-20T06:17:20;98349.09;;;13.03;96.56
49949;BME280;35840;45.982;8.890;2023-05-20T06:19:47;98356.28;;;13.11;95.31
49949;BME280;35840;45.982;8.890;2023-05-20T06:22:15;98338.44;;;13.08;95.15
49949;BME280;35840;45.982;8.890;2023-05-20T06:24:43;98343.09;;;13.16;95.71
49949;BME280;35840;45.982;8.890;2023-05-20T06:27:11;98335.09;;;13.19;94.91
49949;BME280;35840;45.982;8.890;2023-05-20T06:29:38;98331.59;;;13.20;95.75
49949;BME280;35840;45.982;8.890;2023-05-20T06:32:07;98324.16;;;13.15;94.61
49949;BME280;35840;45.982;8.890;2023-05-20T06:34:35;98341.31;;;13.16;95.52
49949;BME280;35840;45.982;8.890;2023-05-20T06:37:01;98335.63;;;13.11;96.00
49949;BME280;35840;45.982;8.890;2023-05-20T06:39:28;98334.94;;;13.09;96.69
49949;BME280;35840;45.982;8.890;2023-05-20T06:41:55;98342.06;;;13.05;96.12
49949;BME280;35840;45.982;8.890;2023-05-20T06:44:30;98333.00;;;13.00;94.67
49949;BME280;35840;45.982;8.890;2023-05-20T06:46:59;98342.84;;;12.95;94.99
49949;BME280;35840;45.982;8.890;2023-05-20T06:49:26;98338.72;;;12.92;96.20
49949;BME280;35840;45.982;8.890;2023-05-20T06:51:54;98341.50;;;12.89;95.71
49949;BME280;35840;45.982;8.890;2023-05-20T06:54:21;98342.34;;;12.89;96.70
49949;BME280;35840;45.982;8.890;2023-05-20T06:56:47;98332.78;;;12.79;96.56
49949;BME280;35840;45.982;8.890;2023-05-20T06:59:14;98355.13;;;12.91;95.99
49949;BME280;35840;45.982;8.890;2023-05-20T07:01:42;98358.53;;;12.91;96.08
49949;BME280;35840;45.982;8.890;2023-05-20T07:04:10;98356.16;;;13.01;96.61
49949;BME280;35840;45.982;8.890;2023-05-20T07:06:37;98356.03;;;13.03;94.31
49949;BME280;35840;45.982;8.890;2023-05-20T07:09:04;98353.66;;;13.00;95.09
49949;BME280;35840;45.982;8.890;2023-05-20T07:11:31;98360.25;;;13.04;96.39
49949;BME280;35840;45.982;8.890;2023-05-20T07:13:58;98361.59;;;12.97;93.01
49949;BME280;35840;45.982;8.890;2023-05-20T07:16:26;98353.88;;;12.97;94.43
49949;BME280;35840;45.982;8.890;2023-05-20T07:18:54;98349.09;;;13.03;94.44
49949;BME280;35840;45.982;8.890;2023-05-20T07:21:21;98350.53;;;13.07;93.17
49949;BME280;35840;45.982;8.890;2023-05-20T07:24:06;98350.44;;;13.09;94.44
49949;BME280;35840;45.982;8.890;2023-05-20T07:26:33;98339.72;;;13.02;95.11
49949;BME280;35840;45.982;8.890;2023-05-20T07:29:03;98341.25;;;13.05;97.15
49949;BME280;35840;45.982;8.890;2023-05-20T07:31:30;98339.59;;;13.04;95.74
49949;BME280;35840;45.982;8.890;2023-05-20T07:33:58;98346.75;;;13.00;96.20
49949;BME280;35840;45.982;8.890;2023-05-20T07:36:26;98339.81;;;13.01;95.91
49949;BME280;35840;45.982;8.890;2023-05-20T07:38:54;98336.09;;;13.05;95.62
49949;BME280;35840;45.982;8.890;2023-05-20T07:41:33;98337.97;;;13.03;96.66
49949;BME280;35840;45.982;8.890;2023-05-20T07:44:01;98341.66;;;13.12;95.14
49949;BME280;35840;45.982;8.890;2023-05-20T07:46:31;98338.03;;;13.14;94.67
49949;BME280;35840;45.982;8.890;2023-05-20T07:48:58;98335.44;;;13.14;96.21
49949;BME280;35840;45.982;8.890;2023-05-20T07:51:25;98339.88;;;13.12;95.80
49949;BME280;35840;45.982;8.890;2023-05-20T07:53:52;98332.47;;;13.07;96.13
49949;BME280;35840;45.982;8.890;2023-05-20T07:56:19;98329.88;;;13.07;96.86
49949;BME280;35840;45.982;8.890;2023-05-20T07:58:56;98335.06;;;13.07;97.16
49949;BME280;35840;45.982;8.890;2023-05-20T08:01:28;98329.78;;;13.09;98.06
49949;BME280;35840;45.982;8.890;2023-05-20T08:03:55;98328.75;;;13.12;98.58
49949;BME280;35840;45.982;8.890;2023-05-20T08:06:23;98331.50;;;13.21;98.51
49949;BME280;35840;45.982;8.890;2023-05-20T08:08:54;98331.97;;;13.26;96.74
49949;BME280;35840;45.982;8.890;2023-05-20T08:11:27;98320.72;;;13.27;95.95
49949;BME280;35840;45.982;8.890;2023-05-20T08:13:54;98319.78;;;13.29;96.75
49949;BME280;35840;45.982;8.890;2023-05-20T08:16:23;98324.94;;;13.29;97.34
49949;BME280;35840;45.982;8.890;2023-05-20T08:18:50;98323.63;;;13.23;97.85
49949;BME280;35840;45.982;8.890;2023-05-20T08:21:19;98329.59;;;13.23;98.61
49949;BME280;35840;45.982;8.890;2023-05-20T08:23:47;98321.97;;;13.22;98.43
49949;BME280;35840;45.982;8.890;2023-05-20T08:26:14;98324.56;;;13.22;99.04
49949;BME280;35840;45.982;8.890;2023-05-20T08:28:41;98331.16;;;13.26;97.30
49949;BME280;35840;45.982;8.890;2023-05-20T08:31:08;98326.50;;;13.31;97.97
49949;BME280;35840;45.982;8.890;2023-05-20T08:33:35;98326.38;;;13.33;98.05
49949;BME280;35840;45.982;8.890;2023-05-20T08:36:02;98327.84;;;13.37;98.05
49949;BME280;35840;45.982;8.890;2023-05-20T08:38:29;98322.75;;;13.35;98.80
49949;BME280;35840;45.982;8.890;2023-05-20T08:40:56;98312.50;;;13.34;99.50
49949;BME280;35840;45.982;8.890;2023-05-20T08:43:25;98319.41;;;13.46;98.10
49949;BME280;35840;45.982;8.890;2023-05-20T08:45:52;98321.59;;;13.39;93.36
49949;BME280;35840;45.982;8.890;2023-05-20T08:48:25;98322.44;;;13.40;95.78
49949;BME280;35840;45.982;8.890;2023-05-20T08:50:55;98320.56;;;13.42;98.00
49949;BME280;35840;45.982;8.890;2023-05-20T08:53:22;98318.22;;;13.39;94.37
49949;BME280;35840;45.982;8.890;2023-05-20T08:55:59;98324.28;;;13.38;95.07
49949;BME280;35840;45.982;8.890;2023-05-20T08:58:28;98326.25;;;13.34;95.00
49949;BME280;35840;45.982;8.890;2023-05-20T09:00:55;98325.66;;;13.31;94.73
49949;BME280;35840;45.982;8.890;2023-05-20T09:03:24;98327.75;;;13.25;94.56
49949;BME280;35840;45.982;8.890;2023-05-20T09:05:52;98324.94;;;13.29;96.33
49949;BME280;35840;45.982;8.890;2023-05-20T09:08:23;98318.13;;;13.27;96.82
49949;BME280;35840;45.982;8.890;2023-05-20T09:10:53;98310.84;;;13.21;97.26
49949;BME280;35840;45.982;8.890;2023-05-20T09:13:20;98315.75;;;13.37;98.20
49949;BME280;35840;45.982;8.890;2023-05-20T09:15:49;98303.44;;;13.28;98.12
49949;BME280;35840;45.982;8.890;2023-05-20T09:18:16;98325.72;;;13.42;97.94
49949;BME280;35840;45.982;8.890;2023-05-20T09:20:45;98335.34;;;13.40;97.76
49949;BME280;35840;45.982;8.890;2023-05-20T09:23:12;98335.34;;;13.40;98.07
49949;BME280;35840;45.982;8.890;2023-05-20T09:25:39;98336.78;;;13.44;98.51
49949;BME280;35840;45.982;8.890;2023-05-20T09:28:07;98335.94;;;13.43;97.57
49949;BME280;35840;45.982;8.890;2023-05-20T09:30:34;98344.66;;;13.42;96.60
49949;BME280;35840;45.982;8.890;2023-05-20T09:33:04;98353.78;;;13.47;97.99
49949;BME280;35840;45.982;8.890;2023-05-20T09:35:34;98351.31;;;13.45;99.45
49949;BME280;35840;45.982;8.890;2023-05-20T09:38:04;98350.91;;;13.51;98.45
49949;BME280;35840;45.982;8.890;2023-05-20T09:40:33;98349.84;;;13.54;98.80
49949;BME280;35840;45.982;8.890;2023-05-20T09:43:07;98335.97;;;13.55;97.75
49949;BME280;35840;45.982;8.890;2023-05-20T09:45:34;98336.63;;;13.70;97.19
49949;BME280;35840;45.982;8.890;2023-05-20T09:48:02;98340.88;;;13.71;97.88
49949;BME280;35840;45.982;8.890;2023-05-20T09:50:30;98346.19;;;13.56;97.87
49949;BME280;35840;45.982;8.890;2023-05-20T09:53:02;98349.97;;;13.64;99.23
49949;BME280;35840;45.982;8.890;2023-05-20T09:55:30;98353.69;;;13.72;100.00
49949;BME280;35840;45.982;8.890;2023-05-20T09:58:01;98364.59;;;13.76;100.00
49949;BME280;35840;45.982;8.890;2023-05-20T10:00:29;98365.19;;;13.80;100.00
49949;BME280;35840;45.982;8.890;2023-05-20T10:02:56;98364.47;;;13.77;100.00
49949;BME280;35840;45.982;8.890;2023-05-20T10:05:29;98369.53;;;13.79;99.09
49949;BME280;35840;45.982;8.890;2023-05-20T10:10:48;98375.31;;;13.83;98.43
49949;BME280;35840;45.982;8.890;2023-05-20T10:21:41;98389.66;;;13.87;96.87
49949;BME280;35840;45.982;8.890;2023-05-20T10:24:09;98381.06;;;13.86;96.32
49949;BME280;35840;45.982;8.890;2023-05-20T10:26:40;98382.75;;;13.99;98.58
49949;BME280;35840;45.982;8.890;2023-05-20T10:29:17;98381.00;;;13.99;96.33
49949;BME280;35840;45.982;8.890;2023-05-20T10:31:48;98382.28;;;13.93;97.02
49949;BME280;35840;45.982;8.890;2023-05-20T10:34:16;98392.63;;;13.93;92.82
49949;BME280;35840;45.982;8.890;2023-05-20T10:39:26;98390.97;;;13.92;96.43
49949;BME280;35840;45.982;8.890;2023-05-20T10:42:10;98383.59;;;13.99;97.92
49949;BME280;35840;45.982;8.890;2023-05-20T10:47:08;98378.72;;;13.94;97.15
49949;BME280;35840;45.982;8.890;2023-05-20T10:49:51;98373.13;;;14.01;98.21
49949;BME280;35840;45.982;8.890;2023-05-20T10:52:18;98369.59;;;14.02;98.92
49949;BME280;35840;45.982;8.890;2023-05-20T10:54:47;98370.97;;;13.94;98.71
49949;BME280;35840;45.982;8.890;2023-05-20T10:57:17;98369.81;;;13.99;98.66
49949;BME280;35840;45.982;8.890;2023-05-20T10:59:44;98364.06;;;13.95;99.58
49949;BME280;35840;45.982;8.890;2023-05-20T11:02:11;98357.25;;;13.94;99.06
49949;BME280;35840;45.982;8.890;2023-05-20T11:04:42;98354.28;;;13.87;99.43
49949;BME280;35840;45.982;8.890;2023-05-20T11:07:09;98371.69;;;13.85;99.66
49949;BME280;35840;45.982;8.890;2023-05-20T11:09:36;98360.38;;;13.86;99.71
49949;BME280;35840;45.982;8.890;2023-05-20T11:12:03;98358.53;;;13.88;100.00
49949;BME280;35840;45.982;8.890;2023-05-20T11:14:30;98357.72;;;13.88;100.00
49949;BME280;35840;45.982;8.890;2023-05-20T11:16:57;98359.22;;;13.90;100.00
49949;BME280;35840;45.982;8.890;2023-05-20T11:19:25;98356.44;;;13.93;100.00
49949;BME280;35840;45.982;8.890;2023-05-20T11:21:53;98358.66;;;13.98;100.00
49949;BME280;35840;45.982;8.890;2023-05-20T11:24:27;98355.25;;;13.98;100.00
49949;BME280;35840;45.982;8.890;2023-05-20T11:26:54;98353.50;;;13.98;99.99
49949;BME280;35840;45.982;8.890;2023-05-20T11:29:25;98349.03;;;14.00;100.00
49949;BME280;35840;45.982;8.890;2023-05-20T11:31:51;98347.97;;;14.03;100.00
49949;BME280;35840;45.982;8.890;2023-05-20T11:34:19;98344.00;;;14.10;100.00
49949;BME280;35840;45.982;8.890;2023-05-20T11:36:57;98350.56;;;14.03;100.00
49949;BME280;35840;45.982;8.890;2023-05-20T11:39:28;98348.31;;;13.98;100.00
49949;BME280;35840;45.982;8.890;2023-05-20T11:41:56;98338.91;;;13.97;100.00
49949;BME280;35840;45.982;8.890;2023-05-20T11:44:24;98342.00;;;14.02;100.00
49949;BME280;35840;45.982;8.890;2023-05-20T11:46:58;98326.94;;;14.07;100.00
49949;BME280;35840;45.982;8.890;2023-05-20T11:49:25;98322.00;;;14.04;100.00
49949;BME280;35840;45.982;8.890;2023-05-20T11:51:52;98320.47;;;14.02;100.00
49949;BME280;35840;45.982;8.890;2023-05-20T11:54:21;98319.31;;;14.06;99.71
49949;BME280;35840;45.982;8.890;2023-05-20T11:56:48;98319.53;;;14.03;99.51
49949;BME280;35840;45.982;8.890;2023-05-20T11:59:15;98296.50;;;14.00;100.00
49949;BME280;35840;45.982;8.890;2023-05-20T12:01:42;98311.31;;;14.09;98.61
49949;BME280;35840;45.982;8.890;2023-05-20T12:04:09;98310.38;;;13.99;99.09
49949;BME280;35840;45.982;8.890;2023-05-20T12:06:39;98316.25;;;14.01;98.82
49949;BME280;35840;45.982;8.890;2023-05-20T12:09:06;98310.84;;;14.04;98.67
49949;BME280;35840;45.982;8.890;2023-05-20T12:11:38;98318.13;;;14.10;98.82
49949;BME280;35840;45.982;8.890;2023-05-20T12:14:07;98316.72;;;14.06;96.73
49949;BME280;35840;45.982;8.890;2023-05-20T12:16:35;98326.75;;;14.10;97.54
49949;BME280;35840;45.982;8.890;2023-05-20T12:19:03;98326.03;;;14.20;96.94
49949;BME280;35840;45.982;8.890;2023-05-20T12:21:30;98320.47;;;14.13;94.38
49949;BME280;35840;45.982;8.890;2023-05-20T12:23:58;98313.81;;;14.10;94.08
49949;BME280;35840;45.982;8.890;2023-05-20T12:26:27;98319.06;;;14.20;94.74
49949;BME280;35840;45.982;8.890;2023-05-20T12:28:54;98319.31;;;14.17;95.30
49949;BME280;35840;45.982;8.890;2023-05-20T12:31:21;98317.09;;;14.12;97.19
49949;BME280;35840;45.982;8.890;2023-05-20T12:33:48;98313.22;;;14.07;98.02
49949;BME280;35840;45.982;8.890;2023-05-20T12:36:15;98314.50;;;14.01;98.29
49949;BME280;35840;45.982;8.890;2023-05-20T12:38:42;98312.72;;;14.02;98.44
49949;BME280;35840;45.982;8.890;2023-05-20T12:41:09;98294.28;;;14.06;98.19
49949;BME280;35840;45.982;8.890;2023-05-20T12:43:37;98299.91;;;14.11;98.99
49949;BME280;35840;45.982;8.890;2023-05-20T12:46:03;98301.69;;;14.11;99.21
49949;BME280;35840;45.982;8.890;2023-05-20T12:48:31;98309.34;;;14.12;99.28
49949;BME280;35840;45.982;8.890;2023-05-20T12:50:58;98304.84;;;14.15;98.58
49949;BME280;35840;45.982;8.890;2023-05-20T12:53:25;98310.63;;;14.18;99.96
49949;BME280;35840;45.982;8.890;2023-05-20T12:55:52;98310.88;;;14.15;100.00
49949;BME280;35840;45.982;8.890;2023-05-20T12:58:18;98315.31;;;14.13;100.00
49949;BME280;35840;45.982;8.890;2023-05-20T13:00:45;98317.22;;;14.11;100.00
49949;BME280;35840;45.982;8.890;2023-05-20T13:03:12;98320.03;;;14.08;100.00
49949;BME280;35840;45.982;8.890;2023-05-20T13:05:39;98312.59;;;14.03;100.00
49949;BME280;35840;45.982;8.890;2023-05-20T13:08:06;98318.63;;;14.04;100.00
49949;BME280;35840;45.982;8.890;2023-05-20T13:10:34;98323.66;;;14.05;100.00
49949;BME280;35840;45.982;8.890;2023-05-20T13:13:02;98338.25;;;14.06;100.00
49949;BME280;35840;45.982;8.890;2023-05-20T13:15:28;98325.31;;;14.06;100.00
49949;BME280;35840;45.982;8.890;2023-05-20T13:17:55;98328.47;;;14.10;100.00
49949;BME280;35840;45.982;8.890;2023-05-20T13:20:22;98318.25;;;14.08;100.00
49949;BME280;35840;45.982;8.890;2023-05-20T13:22:49;98315.56;;;14.10;100.00
49949;BME280;35840;45.982;8.890;2023-05-20T13:25:16;98328.25;;;14.24;100.00